createdAt,value
2018-02-05T00:02:09.912Z,80.40
2018-02-05T00:04:38.283Z,80.50
2018-02-05T00:07:06.623Z,80.80
2018-02-05T00:09:34.936Z,80.80
2018-02-05T00:12:03.254Z,81.10
2018-02-05T00:14:31.592Z,81.00
2018-02-05T00:16:59.946Z,80.70
2018-02-05T00:19:28.278Z,80.10
2018-02-05T00:21:56.587Z,80.10
2018-02-05T00:24:24.918Z,80.20
2018-02-05T00:26:53.234Z,80.20
2018-02-05T00:29:21.565Z,79.90
2018-02-05T00:31:49.879Z,79.80
2018-02-05T00:34:18.211Z,80.10
2018-02-05T00:36:46.525Z,80.20
2018-02-05T00:39:14.867Z,80.20
2018-02-05T00:41:43.194Z,80.20
2018-02-05T00:44:11.530Z,80.20
2018-02-05T00:46:39.845Z,79.80
2018-02-05T00:49:08.183Z,79.90
2018-02-05T00:51:36.505Z,79.90
2018-02-05T00:54:04.838Z,79.70
2018-02-05T00:56:33.161Z,79.90
2018-02-05T00:59:01.499Z,78.90
2018-02-05T01:01:29.815Z,78.40
2018-02-05T01:03:58.151Z,78.60
2018-02-05T01:06:26.470Z,78.30
2018-02-05T01:08:54.805Z,78.70
2018-02-05T01:11:23.122Z,79.00
2018-02-05T01:13:51.455Z,78.90
2018-02-05T01:16:19.778Z,78.80
2018-02-05T01:18:48.112Z,78.80
2018-02-05T01:21:16.422Z,78.60
2018-02-05T01:23:44.751Z,79.40
2018-02-05T01:26:13.072Z,78.60
2018-02-05T01:28:41.409Z,78.60
2018-02-05T01:31:09.736Z,78.30
2018-02-05T01:33:38.071Z,78.50
2018-02-05T01:36:06.390Z,78.70
2018-02-05T01:38:34.732Z,78.50
2018-02-05T01:41:03.050Z,78.40
2018-02-05T01:43:31.387Z,78.30
2018-02-05T01:45:59.704Z,78.00
2018-02-05T01:48:28.039Z,78.30
2018-02-05T01:50:56.363Z,78.50
2018-02-05T01:53:24.699Z,78.20
2018-02-05T01:55:53.012Z,78.20
2018-02-05T01:58:20.563Z,78.20
2018-02-05T02:00:48.908Z,78.50
2018-02-05T02:03:17.230Z,78.50
2018-02-05T02:05:45.562Z,78.30
2018-02-05T02:08:13.874Z,78.00
2018-02-05T02:10:42.209Z,78.60
2018-02-05T02:13:10.522Z,78.40
2018-02-05T02:15:38.867Z,78.10
2018-02-05T02:18:07.194Z,78.30
2018-02-05T02:20:35.530Z,78.30
2018-02-05T02:23:03.842Z,78.40
2018-02-05T02:25:32.187Z,78.40
2018-02-05T02:28:00.502Z,78.30
2018-02-05T02:30:28.839Z,78.20
2018-02-05T02:32:57.153Z,79.10
2018-02-05T02:35:25.491Z,78.20
2018-02-05T02:37:53.810Z,78.50
2018-02-05T02:40:22.152Z,78.60
2018-02-05T02:42:50.473Z,78.50
2018-02-05T02:45:18.810Z,78.60
2018-02-05T02:47:47.127Z,78.60
2018-02-05T02:50:15.476Z,78.50
2018-02-05T02:52:43.791Z,78.50
2018-02-05T02:55:12.134Z,78.50
2018-02-05T02:57:40.450Z,78.30
2018-02-05T03:00:08.792Z,78.20
2018-02-05T03:02:37.104Z,78.20
2018-02-05T03:05:05.445Z,78.30
2018-02-05T03:07:33.756Z,78.50
2018-02-05T03:10:02.098Z,78.40
2018-02-05T03:12:30.416Z,78.40
2018-02-05T03:14:58.750Z,78.30
2018-02-05T03:17:27.064Z,78.50
2018-02-05T03:19:55.403Z,78.60
2018-02-05T03:22:23.719Z,78.40
2018-02-05T03:24:52.068Z,78.50
2018-02-05T03:27:20.389Z,78.60
2018-02-05T03:29:48.730Z,78.40
2018-02-05T03:32:17.047Z,78.40
2018-02-05T03:34:45.391Z,78.40
2018-02-05T03:37:13.703Z,78.40
2018-02-05T03:39:42.020Z,78.50
2018-02-05T03:42:10.359Z,78.70
2018-02-05T03:44:38.679Z,78.30
2018-02-05T03:47:07.056Z,78.40
2018-02-05T03:49:35.399Z,78.40
2018-02-05T03:52:03.718Z,78.30
2018-02-05T03:54:32.035Z,78.40
2018-02-05T03:57:00.375Z,78.60
2018-02-05T03:59:28.718Z,78.40
2018-02-05T04:01:57.063Z,78.70
2018-02-05T04:04:25.384Z,78.80
2018-02-05T04:06:59.439Z,78.70
2018-02-05T04:09:27.754Z,78.90
2018-02-05T04:11:56.086Z,78.80
2018-02-05T04:14:24.398Z,78.70
2018-02-05T04:16:52.736Z,78.70
2018-02-05T04:19:21.047Z,78.90
2018-02-05T04:21:49.380Z,78.90
2018-02-05T04:24:17.696Z,79.00
2018-02-05T04:26:46.030Z,78.80
2018-02-05T04:29:14.369Z,79.30
2018-02-05T04:31:42.699Z,79.40
2018-02-05T04:34:11.021Z,79.40
2018-02-05T04:36:39.356Z,79.40
2018-02-05T04:39:07.670Z,79.00
2018-02-05T04:41:36.008Z,79.00
2018-02-05T04:44:04.326Z,79.10
2018-02-05T04:46:32.656Z,79.20
2018-02-05T04:49:00.967Z,78.90
2018-02-05T04:51:29.312Z,78.60
2018-02-05T04:53:57.638Z,78.70
2018-02-05T04:56:25.976Z,78.90
2018-02-05T04:58:54.286Z,79.00
2018-02-05T05:01:22.616Z,79.30
2018-02-05T05:03:50.931Z,79.30
2018-02-05T05:06:19.262Z,79.20
2018-02-05T05:08:47.571Z,79.10
2018-02-05T05:11:15.910Z,78.90
2018-02-05T05:13:44.230Z,78.90
2018-02-05T05:16:12.585Z,79.70
2018-02-05T05:18:40.932Z,79.50
2018-02-05T05:21:09.273Z,79.70
2018-02-05T05:23:37.582Z,79.80
2018-02-05T05:26:05.898Z,79.30
2018-02-05T05:28:34.240Z,79.50
2018-02-05T05:31:02.554Z,79.60
2018-02-05T05:33:30.892Z,79.50
2018-02-05T05:35:59.214Z,79.30
2018-02-05T05:38:27.553Z,79.40
2018-02-05T05:40:55.870Z,79.60
2018-02-05T05:43:24.210Z,79.70
2018-02-05T05:45:52.514Z,79.70
2018-02-05T05:48:20.854Z,79.40
2018-02-05T05:50:49.166Z,79.50
2018-02-05T05:53:17.509Z,79.80
2018-02-05T05:55:45.831Z,79.80
2018-02-05T05:58:14.171Z,79.80
2018-02-05T06:00:42.496Z,79.70
2018-02-05T06:03:10.835Z,80.00
2018-02-05T06:05:39.150Z,80.00
2018-02-05T06:08:07.495Z,79.90
2018-02-05T06:10:35.798Z,80.00
2018-02-05T06:13:04.179Z,80.00
2018-02-05T06:15:32.478Z,80.00
2018-02-05T06:18:00.822Z,80.30
2018-02-05T06:20:29.134Z,80.40
2018-02-05T06:22:57.466Z,80.60
2018-02-05T06:25:25.814Z,80.60
2018-02-05T06:27:54.172Z,80.50
2018-02-05T06:30:22.486Z,80.50
2018-02-05T06:32:50.839Z,80.40
2018-02-05T06:35:19.166Z,80.30
2018-02-05T06:37:47.507Z,80.60
2018-02-05T06:40:15.818Z,80.70
2018-02-05T06:42:44.158Z,80.90
2018-02-05T06:45:12.478Z,80.60
2018-02-05T06:47:40.819Z,80.70
2018-02-05T06:50:09.138Z,80.60
2018-02-05T06:52:59.249Z,80.30
2018-02-05T06:55:39.378Z,80.50
2018-02-05T06:58:07.709Z,80.90
2018-02-05T07:00:36.032Z,81.00
2018-02-05T07:03:04.370Z,81.30
2018-02-05T07:05:32.699Z,81.40
2018-02-05T07:08:01.046Z,81.20
2018-02-05T07:10:29.371Z,81.20
2018-02-05T07:12:57.710Z,81.10
2018-02-05T07:15:26.026Z,81.20
2018-02-05T07:17:54.371Z,81.30
2018-02-05T07:20:22.685Z,81.10
2018-02-05T07:22:51.030Z,81.20
2018-02-05T07:25:19.352Z,81.20
2018-02-05T07:27:47.663Z,80.70
2018-02-05T07:30:16.068Z,80.90
2018-02-05T07:32:44.387Z,80.90
2018-02-05T07:35:12.734Z,81.00
2018-02-05T07:37:41.042Z,80.80
2018-02-05T07:40:09.385Z,80.80
2018-02-05T07:42:37.699Z,80.70
2018-02-05T07:45:06.032Z,80.10
2018-02-05T07:47:34.359Z,80.50
2018-02-05T07:50:02.699Z,80.30
2018-02-05T07:52:31.010Z,80.00
2018-02-05T07:54:59.338Z,79.90
2018-02-05T07:57:27.654Z,79.70
2018-02-05T07:59:56.001Z,79.30
2018-02-05T08:02:24.333Z,79.20
2018-02-05T08:04:52.680Z,79.10
2018-02-05T08:07:20.990Z,78.60
2018-02-05T08:09:49.330Z,79.10
2018-02-05T08:12:17.653Z,78.10
2018-02-05T08:14:45.992Z,77.70
2018-02-05T08:17:14.314Z,77.60
2018-02-05T08:19:42.655Z,77.30
2018-02-05T08:22:10.970Z,77.30
2018-02-05T08:24:39.316Z,76.70
2018-02-05T08:27:07.634Z,76.70
2018-02-05T08:29:35.977Z,76.70
2018-02-05T08:32:04.290Z,76.50
2018-02-05T08:34:32.623Z,76.30
2018-02-05T08:37:00.179Z,76.30
2018-02-05T08:39:28.514Z,75.40
2018-02-05T08:41:56.837Z,73.90
2018-02-05T08:44:25.189Z,73.90
2018-02-05T08:46:53.502Z,74.10
2018-02-05T08:49:21.851Z,74.20
2018-02-05T08:51:50.179Z,74.30
2018-02-05T08:54:18.516Z,73.40
2018-02-05T08:56:46.821Z,73.00
2018-02-05T08:59:15.160Z,72.60
2018-02-05T09:01:43.478Z,72.30
2018-02-05T09:04:11.810Z,72.40
2018-02-05T09:06:40.122Z,72.40
2018-02-05T09:09:08.440Z,72.10
2018-02-05T09:11:36.930Z,71.60
2018-02-05T09:14:05.257Z,72.10
2018-02-05T09:16:33.587Z,72.00
2018-02-05T09:19:01.911Z,71.10
2018-02-05T09:21:30.248Z,70.70
2018-02-05T09:23:58.554Z,70.50
2018-02-05T09:26:26.132Z,70.40
2018-02-05T09:28:54.442Z,70.70
2018-02-05T09:31:22.770Z,69.20
2018-02-05T09:33:51.092Z,69.00
2018-02-05T09:36:19.431Z,69.20
2018-02-05T09:38:47.743Z,68.20
2018-02-05T09:41:16.080Z,67.30
2018-02-05T09:43:44.394Z,67.00
2018-02-05T09:46:12.731Z,66.80
2018-02-05T09:48:41.052Z,66.10
2018-02-05T09:51:09.386Z,66.10
2018-02-05T09:53:37.693Z,65.50
2018-02-05T09:56:06.032Z,65.00
2018-02-05T09:58:34.342Z,64.20
2018-02-05T10:01:02.735Z,64.40
2018-02-05T10:03:31.021Z,63.50
2018-02-05T10:05:59.352Z,62.70
2018-02-05T10:08:27.662Z,63.30
2018-02-05T10:10:55.999Z,62.70
2018-02-05T10:13:24.307Z,63.70
2018-02-05T10:15:52.647Z,64.40
2018-02-05T10:18:20.963Z,63.80
2018-02-05T10:20:49.301Z,63.60
2018-02-05T10:23:17.611Z,63.50
2018-02-05T10:25:45.947Z,63.30
2018-02-05T10:28:14.282Z,63.00
2018-02-05T10:30:42.627Z,63.50
2018-02-05T10:33:10.938Z,60.80
2018-02-05T10:35:39.271Z,60.60
2018-02-05T10:38:07.591Z,60.50
2018-02-05T10:40:35.931Z,60.80
2018-02-05T10:43:04.246Z,61.20
2018-02-05T10:45:32.587Z,60.50
2018-02-05T10:48:00.907Z,60.90
2018-02-05T10:50:29.251Z,59.30
2018-02-05T10:52:56.799Z,59.40
2018-02-05T10:55:25.111Z,60.20
2018-02-05T10:57:53.450Z,60.40
2018-02-05T11:00:21.767Z,59.70
2018-02-05T11:02:50.102Z,59.60
2018-02-05T11:05:18.411Z,58.60
2018-02-05T11:07:46.740Z,59.10
2018-02-05T11:10:15.054Z,59.30
2018-02-05T11:12:43.411Z,58.60
2018-02-05T11:15:11.718Z,59.10
2018-02-05T11:17:40.057Z,59.00
2018-02-05T11:20:08.370Z,58.60
2018-02-05T11:22:36.715Z,58.30
2018-02-05T11:25:05.028Z,57.40
2018-02-05T11:27:33.359Z,56.80
2018-02-05T11:30:01.676Z,57.20
2018-02-05T11:32:30.015Z,58.20
2018-02-05T11:34:58.380Z,58.90
2018-02-05T11:37:26.715Z,59.40
2018-02-05T11:39:55.035Z,59.30
2018-02-05T11:42:23.372Z,58.90
2018-02-05T11:44:51.678Z,57.50
2018-02-05T11:47:20.018Z,56.90
2018-02-05T11:49:48.331Z,57.00
2018-02-05T11:52:16.671Z,55.80
2018-02-05T11:54:45.007Z,55.70
2018-02-05T11:57:13.355Z,56.30
2018-02-05T11:59:41.677Z,55.90
2018-02-05T12:02:10.014Z,55.10
2018-02-05T12:04:38.322Z,54.10
2018-02-05T12:07:06.679Z,53.50
2018-02-05T12:09:35.053Z,54.60
2018-02-05T12:12:03.384Z,53.60
2018-02-05T12:14:31.702Z,53.00
2018-02-05T12:17:00.043Z,54.20
2018-02-05T12:19:28.356Z,53.40
2018-02-05T12:21:56.690Z,53.20
2018-02-05T12:24:25.006Z,53.80
2018-02-05T12:26:53.341Z,53.50
2018-02-05T12:29:21.648Z,53.80
2018-02-05T12:31:49.986Z,53.30
2018-02-05T12:34:18.303Z,52.50
2018-02-05T12:36:46.631Z,52.00
2018-02-05T12:39:14.955Z,51.90
2018-02-05T12:41:43.266Z,51.80
2018-02-05T12:44:11.603Z,51.80
2018-02-05T12:46:39.923Z,52.60
2018-02-05T12:49:08.299Z,52.30
2018-02-05T12:51:36.620Z,52.20
2018-02-05T12:54:04.959Z,52.60
2018-02-05T12:56:33.265Z,51.60
2018-02-05T12:59:01.597Z,51.60
2018-02-05T13:01:32.766Z,51.00
2018-02-05T13:04:02.586Z,50.00
2018-02-05T13:06:46.606Z,50.70
2018-02-05T13:09:14.936Z,50.50
2018-02-05T13:11:43.254Z,51.00
2018-02-05T13:14:11.592Z,50.90
2018-02-05T13:16:39.907Z,50.00
2018-02-05T13:19:08.246Z,50.40
2018-02-05T13:21:36.546Z,49.40
2018-02-05T13:24:04.884Z,49.70
2018-02-05T13:26:33.198Z,48.50
2018-02-05T13:29:01.728Z,48.00
2018-02-05T13:31:30.042Z,48.70
2018-02-05T13:33:57.602Z,48.70
2018-02-05T13:36:26.226Z,49.60
2018-02-05T13:38:54.550Z,49.20
2018-02-05T13:41:22.867Z,49.50
2018-02-05T13:43:51.205Z,50.00
2018-02-05T13:46:19.526Z,50.00
2018-02-05T13:48:47.857Z,49.00
2018-02-05T13:51:16.167Z,49.30
2018-02-05T13:53:44.495Z,48.40
2018-02-05T13:56:12.807Z,48.90
2018-02-05T13:58:41.151Z,48.60
2018-02-05T14:01:09.455Z,49.00
2018-02-05T14:03:37.786Z,49.20
2018-02-05T14:06:06.092Z,49.10
2018-02-05T14:08:34.432Z,48.50
2018-02-05T14:11:02.751Z,48.60
2018-02-05T14:13:31.075Z,49.10
2018-02-05T14:15:59.373Z,49.40
2018-02-05T14:18:27.715Z,49.40
2018-02-05T14:20:56.023Z,47.60
2018-02-05T14:23:24.357Z,48.10
2018-02-05T14:25:52.687Z,48.90
2018-02-05T14:28:21.008Z,48.60
2018-02-05T14:30:49.314Z,49.00
2018-02-05T14:33:17.650Z,48.50
2018-02-05T14:35:45.957Z,49.00
2018-02-05T14:38:14.322Z,48.30
2018-02-05T14:40:42.636Z,48.80
2018-02-05T14:43:10.950Z,48.90
2018-02-05T14:45:39.274Z,49.00
2018-02-05T14:48:07.592Z,49.60
2018-02-05T14:50:35.927Z,48.60
2018-02-05T14:53:04.234Z,48.00
2018-02-05T14:55:32.579Z,48.30
2018-02-05T14:58:00.898Z,49.00
2018-02-05T15:00:29.237Z,48.70
2018-02-05T15:02:57.545Z,49.30
2018-02-05T15:05:25.877Z,49.10
2018-02-05T15:07:54.178Z,49.40
2018-02-05T15:10:22.509Z,49.20
2018-02-05T15:12:50.822Z,49.80
2018-02-05T15:15:19.146Z,50.20
2018-02-05T15:17:47.463Z,50.40
2018-02-05T15:20:15.787Z,50.70
2018-02-05T15:22:44.090Z,50.70
2018-02-05T15:25:12.422Z,51.00
2018-02-05T15:27:40.738Z,51.40
2018-02-05T15:30:09.097Z,51.70
2018-02-05T15:32:37.416Z,51.90
2018-02-05T15:35:05.753Z,52.30
2018-02-05T15:37:34.072Z,52.90
2018-02-05T15:40:02.418Z,53.20
2018-02-05T15:42:30.727Z,53.20
2018-02-05T15:44:59.068Z,53.20
2018-02-05T15:47:27.390Z,53.50
2018-02-05T15:49:55.735Z,53.90
2018-02-05T15:52:24.051Z,53.80
2018-02-05T15:54:52.392Z,54.20
2018-02-05T15:57:20.721Z,53.70
2018-02-05T15:59:49.059Z,53.90
2018-02-05T16:02:17.373Z,54.00
2018-02-05T16:04:45.712Z,54.20
2018-02-05T16:07:14.042Z,54.60
2018-02-05T16:09:42.387Z,54.60
2018-02-05T16:12:10.711Z,55.10
2018-02-05T16:14:39.042Z,55.20
2018-02-05T16:17:07.360Z,55.50
2018-02-05T16:19:35.694Z,56.00
2018-02-05T16:22:03.994Z,56.40
2018-02-05T16:24:31.554Z,56.40
2018-02-05T16:26:59.948Z,57.10
2018-02-05T16:29:28.219Z,57.40
2018-02-05T16:31:56.554Z,57.60
2018-02-05T16:34:24.864Z,57.90
2018-02-05T16:36:53.195Z,58.40
2018-02-05T16:39:21.525Z,58.90
2018-02-05T16:41:49.875Z,59.40
2018-02-05T16:44:18.192Z,60.10
2018-02-05T16:46:46.529Z,60.70
2018-02-05T16:49:14.847Z,61.00
2018-02-05T16:51:43.180Z,61.30
2018-02-05T16:54:11.481Z,61.30
2018-02-05T16:56:39.821Z,61.40
2018-02-05T16:59:08.135Z,61.60
2018-02-05T17:01:36.466Z,62.00
2018-02-05T17:04:04.783Z,62.30
2018-02-05T17:06:33.123Z,62.70
2018-02-05T17:09:01.436Z,62.80
2018-02-05T17:11:29.836Z,62.70
2018-02-05T17:13:58.155Z,62.50
2018-02-05T17:16:26.496Z,62.50
2018-02-05T17:18:54.811Z,62.40
2018-02-05T17:21:23.151Z,62.70
2018-02-05T17:23:51.472Z,62.80
2018-02-05T17:26:19.807Z,63.20
2018-02-05T17:28:47.365Z,63.20
2018-02-05T17:31:15.725Z,63.30
2018-02-05T17:33:44.034Z,63.30
2018-02-05T17:36:12.380Z,63.40
2018-02-05T17:38:40.689Z,63.80
2018-02-05T17:41:09.017Z,64.30
2018-02-05T17:43:37.342Z,64.90
2018-02-05T17:46:05.682Z,65.40
2018-02-05T17:48:34.003Z,65.80
2018-02-05T17:51:02.348Z,66.10
2018-02-05T17:53:30.682Z,67.00
2018-02-05T17:55:59.015Z,66.60
2018-02-05T17:58:27.346Z,67.20
2018-02-05T18:00:55.690Z,68.00
2018-02-05T18:03:24.009Z,68.30
2018-02-05T18:05:52.353Z,69.00
2018-02-05T18:08:20.683Z,69.40
2018-02-05T18:10:49.017Z,69.90
2018-02-05T18:13:17.333Z,70.10
2018-02-05T18:15:45.648Z,70.20
2018-02-05T18:18:13.986Z,70.00
2018-02-05T18:20:42.321Z,69.80
2018-02-05T18:23:10.660Z,69.80
2018-02-05T18:25:38.986Z,69.70
2018-02-05T18:28:07.327Z,70.00
2018-02-05T18:30:35.646Z,70.30
2018-02-05T18:33:03.982Z,70.70
2018-02-05T18:35:32.299Z,70.90
2018-02-05T18:38:00.639Z,71.00
2018-02-05T18:40:28.958Z,71.00
2018-02-05T18:42:57.298Z,71.20
2018-02-05T18:45:25.606Z,71.50
2018-02-05T18:47:53.950Z,71.80
2018-02-05T18:50:22.284Z,72.00
2018-02-05T18:52:50.628Z,73.10
2018-02-05T18:55:18.936Z,72.50
2018-02-05T18:57:47.275Z,73.00
2018-02-05T19:00:27.339Z,73.00
2018-02-05T19:02:55.687Z,73.50
2018-02-05T19:05:23.999Z,74.70
2018-02-05T19:07:52.341Z,73.70
2018-02-05T19:10:20.658Z,73.80
2018-02-05T19:12:48.996Z,73.90
2018-02-05T19:15:17.319Z,74.20
2018-02-05T19:17:45.669Z,74.40
2018-02-05T19:20:13.988Z,74.20
2018-02-05T19:22:42.384Z,74.30
2018-02-05T19:25:10.848Z,74.40
2018-02-05T19:27:39.271Z,74.60
2018-02-05T19:30:07.621Z,74.60
2018-02-05T19:32:35.983Z,74.50
2018-02-05T19:35:04.300Z,74.60
2018-02-05T19:37:32.849Z,74.60
2018-02-05T19:40:01.171Z,74.40
2018-02-05T19:42:29.515Z,74.50
2018-02-05T19:44:57.875Z,74.30
2018-02-05T19:47:26.195Z,74.20
2018-02-05T19:49:54.538Z,74.20
2018-02-05T19:52:22.870Z,74.50
2018-02-05T19:54:51.276Z,74.80
2018-02-05T19:57:19.585Z,74.90
2018-02-05T19:59:47.934Z,74.80
2018-02-05T20:02:16.251Z,75.00
2018-02-05T20:04:44.592Z,75.10
2018-02-05T20:07:12.906Z,75.00
2018-02-05T20:09:41.248Z,75.10
2018-02-05T20:12:09.563Z,75.30
2018-02-05T20:14:37.903Z,75.40
2018-02-05T20:17:06.226Z,75.40
2018-02-05T20:19:34.563Z,75.30
2018-02-05T20:22:02.887Z,75.50
2018-02-05T20:24:31.226Z,75.40
2018-02-05T20:26:59.539Z,75.20
2018-02-05T20:29:27.878Z,75.30
2018-02-05T20:31:56.206Z,75.30
2018-02-05T20:34:24.553Z,75.40
2018-02-05T20:36:52.879Z,75.20
2018-02-05T20:39:21.234Z,75.00
2018-02-05T20:41:49.557Z,74.90
2018-02-05T20:44:17.898Z,74.90
2018-02-05T20:46:46.219Z,75.00
2018-02-05T20:49:14.623Z,75.30
2018-02-05T20:51:42.916Z,75.00
2018-02-05T20:54:11.246Z,75.10
2018-02-05T20:56:39.571Z,75.10
2018-02-05T20:59:07.912Z,74.90
2018-02-05T21:01:36.229Z,74.90
2018-02-05T21:04:04.572Z,74.90
2018-02-05T21:06:32.891Z,74.70
2018-02-05T21:09:01.243Z,74.90
2018-02-05T21:11:29.560Z,75.00
2018-02-05T21:13:57.903Z,75.00
2018-02-05T21:16:26.221Z,74.90
2018-02-05T21:18:54.565Z,74.70
2018-02-05T21:21:22.887Z,74.70
2018-02-05T21:23:51.226Z,74.60
2018-02-05T21:26:19.541Z,74.50
2018-02-05T21:28:47.862Z,74.40
2018-02-05T21:31:16.198Z,74.00
2018-02-05T21:33:44.518Z,74.00
2018-02-05T21:36:12.857Z,74.00
2018-02-05T21:38:41.182Z,74.00
2018-02-05T21:41:09.523Z,73.80
2018-02-05T21:43:37.838Z,73.80
2018-02-05T21:46:06.170Z,73.80
2018-02-05T21:48:34.484Z,73.90
2018-02-05T21:51:02.873Z,74.00
2018-02-05T21:53:31.158Z,73.60
2018-02-05T21:55:59.497Z,73.60
2018-02-05T21:58:27.822Z,73.70
2018-02-05T22:00:56.163Z,73.60
2018-02-05T22:03:24.486Z,73.40
2018-02-05T22:05:52.831Z,73.20
2018-02-05T22:08:21.142Z,73.20
2018-02-05T22:10:49.484Z,73.30
2018-02-05T22:13:17.805Z,73.40
2018-02-05T22:15:46.150Z,73.70
2018-02-05T22:18:14.466Z,73.70
2018-02-05T22:20:42.811Z,73.90
2018-02-05T22:23:11.130Z,73.80
2018-02-05T22:25:39.474Z,73.90
2018-02-05T22:28:07.799Z,74.00
2018-02-05T22:30:36.142Z,74.10
2018-02-05T22:33:04.464Z,73.80
2018-02-05T22:35:32.798Z,74.00
2018-02-05T22:38:01.122Z,73.90
2018-02-05T22:40:29.910Z,73.80
2018-02-05T22:42:58.223Z,73.70
2018-02-05T22:45:26.619Z,73.70
2018-02-05T22:47:54.912Z,73.80
2018-02-05T22:50:23.258Z,73.90
2018-02-05T22:52:51.571Z,73.90
2018-02-05T22:55:19.901Z,73.90
2018-02-05T22:57:48.231Z,74.00
2018-02-05T23:00:16.568Z,73.90
2018-02-05T23:02:44.888Z,74.00
2018-02-05T23:05:13.231Z,74.00
2018-02-05T23:07:41.545Z,73.90
2018-02-05T23:10:09.862Z,73.90
2018-02-05T23:12:38.205Z,73.90
2018-02-05T23:15:06.587Z,74.20
2018-02-05T23:17:34.906Z,74.50
2018-02-05T23:20:03.226Z,74.30
2018-02-05T23:22:31.566Z,74.40
2018-02-05T23:24:59.898Z,74.30
2018-02-05T23:27:28.240Z,74.40
2018-02-05T23:29:56.558Z,74.40
2018-02-05T23:32:24.899Z,74.50
2018-02-05T23:34:53.219Z,74.90
2018-02-05T23:37:21.559Z,75.00
2018-02-05T23:39:49.873Z,75.00
2018-02-05T23:42:18.211Z,75.10
2018-02-05T23:44:46.522Z,75.00
2018-02-05T23:47:14.859Z,75.10
2018-02-05T23:49:43.171Z,75.30
2018-02-05T23:52:11.516Z,75.50
2018-02-05T23:54:39.835Z,75.70
2018-02-05T23:57:08.175Z,76.00
2018-02-05T23:59:36.505Z,76.10
